NWS Home NWS Lubbock West Texas Mesonet Central Sector Latest Conditions as of 0847 PM, Sat Jan 20, 2018

Latest   N   C   S   Daily Sum   3hrΔ   24hrΔ   Soil Data 
Site Map   24hr Precip   72hr Precip   Google Plot


Station Time of Last Temp Dew Pt. RH Wind Direction Wind Speed Wind Gust Max Wind Max Temp Min Temp Max RH Min RH Altimeter 1HR Rain Today's Rain Solar Rad Wind ChillRed Flag
Abernathy 5ENE  08:40 PM 50 12 21% SW1012 22 mph 241° @ 0325 PM 76 33 43 9 29.81" 0 0.00 0    
Aiken 3WSW  08:40 PM 46 11 24% S1112 24 mph 231° @ 0206 PM 77 26 54 11 29.81" 0 0.00 0    
Amherst 1NE  08:40 PM 56 13 17% SW1417 24 mph 283° @ 1005 AM 75 40 34 7 29.81" 0 0.00 0    
Anton 6SSW  08:40 PM 46 11 23% S810 24 mph 212° @ 0435 PM 76 27 46 8 29.82" 0 0.00 0    
Aspermont 3NE  08:40 PM 56 25 31% SE89 26 mph 193° @ 0425 PM 80 39 86 10 29.80" 0 0.00 0    
Bootleg 11WNW  08:40 PM 47 12 24% S1314 30 mph 245° @ 0135 PM 71 37 36 12 29.80" 0 0.00 0   35
Brownfield 2S  08:40 PM 54 13 19% SW1217 28 mph 253° @ 0250 PM 78 30 44 7 29.83" 0 0.00 0    
Caprock Canyons State Park  08:40 PM 59 14 17% SW1416 30 mph 219° @ 1205 AM 81 41 31 8 29.77" 0 0.00 0    
Childress 2NNE  08:40 PM 60 22 23% S1517 30 mph 180° @ 1240 AM 79 33 76 10 29.75" 0 0.00 0    
Clarendon 2WSW  08:40 PM 56 14 19% S1215 23 mph 168° @ 0425 PM 80 30 47 9 29.75" 0 0.00 0    
Claude 12SW  08:40 PM 58 13 17% SE67 23 mph 225° @ 0453 PM 78 45 29 9 29.77" 0 0.00 0    
Crowell 1E  08:40 PM 58 31 37% S1011 24 mph 192° @ 0149 AM 78 41 90 17 29.77" 0 0.00 0    
Denver City 7WNW  08:40 PM 48 12 23% SW911 31 mph 234° @ 0225 PM 73 25 51 8 29.84" 0 0.00 0   35
Dimmitt 2NE  08:40 PM 55 12 18% SW1620 28 mph 245° @ 0305 PM 74 35 41 10 29.79" 0 0.00 0    
Dora NM 2SW  08:40 PM 51 13 22% SW1519 25 mph 279° @ 1045 AM 71 41 29 8 29.82" 0 0.00 0    
Earth 9WSW  08:40 PM 55 14 20% S1516 25 mph 272° @ 1232 PM 76 31 46 8 29.81" 0 0.00 0    
Floydada 2NNE  08:40 PM 54 12 19% S1214 23 mph 213° @ 0350 PM 77 32 43 8 29.80" 0 0.00 0    
Fluvanna 3WNW  08:40 PM 57 19 23% S1214 23 mph 193° @ 0335 PM 75 33 91 11 29.83" 0 0.00 0    
Friona 2NE  08:40 PM 46 12 24% S1113 32 mph 244° @ 0300 PM 73 31 46 11 29.80" 0 0.00 0    
Gail 2ESE  08:40 PM 53 19 26% SW1111 22 mph 192° @ 0310 PM 77 28 88 9 29.82" 0 0.00 0    
Goodlett 3W  08:40 PM 56 20 25% S1011 24 mph 173° @ 0455 PM 79 38 72 11 29.74" 0 0.00 0    
Graham 5SSW  08:40 PM 61 13 15% SW911 25 mph 235° @ 0205 PM 77 34 65 10 29.82" 0 0.00 0    
Guthrie 10WSW  08:40 PM 62 22 22% S1417 26 mph 209° @ 0430 PM 79 41 66 9 29.78" 0 0.00 0    
Happy 1E  08:40 PM 41 11 28% SW89 26 mph 263° @ 0205 PM 78 36 36 10 29.79" 0 0.00 0    
Hart 3N  08:40 PM 45 14 29% SW1315 23 mph 238° @ 0320 PM 75 31 49 10 29.79" 0 0.00 0    
Haskell 1NW  08:40 PM 61 28 29% S914 30 mph 226° @ 0310 PM 78 39 100 13 29.80" 0 0.00 0   5
Hereford 2NW  08:40 PM 49 11 21% SW911 28 mph 248° @ 0150 PM 75 32 45 10 29.77" 0 0.00 0    
Hobbs NM 5NW  08:40 PM 49 12 22% SW89 29 mph 239° @ 0149 PM 73 29 47 9 29.88" 0 0.00 0   23
Jayton 1SSE  08:40 PM 56 22 27% S57 24 mph 196° @ 0410 PM 78 37 86 11 29.80" 0 0.00 0    
Knox City 3NW  08:40 PM 60 29 32% S1619 27 mph 221° @ 1130 AM 78 40 87 14 29.79" 0 0.00 0    
Lake Alan Henry 1NW  08:40 PM 56 16 20% S55 27 mph 213° @ 0335 AM 79 40 75 9 29.81" 0 0.00 0    
Lamesa 2SE  08:40 PM 52 18 26% S1213 20 mph 234° @ 0315 PM 75 27 83 11 29.85" 0 0.00 0    
Lesley 2S  08:40 PM 58 18 20% S1111 19 mph 217° @ 0509 PM 85 24 59 8 29.73" 0 0.00 0    
Levelland 4S  08:40 PM 48 11 22% S1113 22 mph 233° @ 0420 PM 77 27 46 6 29.82" 0 0.00 0    
Lubbock 3WNW TTU  08:40 PM 59 12 15% S1013 21 mph 224° @ 0455 PM 78 31 41 5 29.82" 0 0.00 0    
Memphis 1NE  08:40 PM 51 12 21% E24 21 mph 119° @ 0430 PM 79 23 70 11 29.74" 0 0.00 0    
Morton 1ENE  08:40 PM 56 11 17% SW1215 22 mph 221° @ 0350 PM 77 33 39 5 29.82" 0 0.00 0    
Muleshoe 2SSW  08:40 PM 51 14 22% SW1215 27 mph 244° @ 0225 PM 75 33 43 8 29.81" 0 0.00 0    
New Home  08:40 PM 52 14 22% SW1112 25 mph 239° @ 0356 PM 78 29 49 8 29.84" 0 0.00 0   1
Northfield 1S  08:40 PM 60 20 22% S1418 23 mph 194° @ 1210 AM 85 37 51 7 29.75" 0 0.00 0    
O'Donnell 1N  08:40 PM 50 11 20% SW78 26 mph 238° @ 0145 PM 77 28 67 9 29.83" 0 0.00 0    
Odell 4ENE  08:40 PM 56 32 40% S1516 26 mph 173° @ 0313 AM 75 41 95 19 29.77" 0 0.00 0    
Olton 6S  08:40 PM 45 11 25% S1314 26 mph 279° @ 1040 AM 75 31 45 9 29.81" 0 0.00 0    
Paducah 10SW  08:40 PM 51 22 31% SW1113 26 mph 235° @ 0925 AM 80 36 68 9 29.77" 0 0.00 0    
Palo Duro 4E (JA Ranch)  08:40 PM 55 15 21% S44 23 mph 212° @ 0229 PM 84 22 60 8 29.75" 0 0.00 0    
Palo Duro Canyon SP Floor  08:40 PM 51 13 22% N00 19 mph 238° @ 0222 PM 84 31 43 8 29.75" 0 0.00 0    
Palo Duro Canyon State Park Rim  08:40 PM 54 13 19% SW24 23 mph 248° @ 0249 PM 80 42 32 9 29.78" 0 0.00 0    
Plains 3N  08:40 PM 49 13 23% SW911 28 mph 229° @ 0250 PM 75 27 45 7 29.84" 0 0.00 0    
Plainview 1S  08:40 PM 56 12 17% SW1216 22 mph 212° @ 0825 PM 76 30 50 10 29.79" 0 0.00 0    
Post 1NE  08:40 PM 56 12 17% SW911 27 mph 221° @ 0345 AM 79 38 51 7 29.81" 0 0.00 0    
Ralls 1SE  08:40 PM 45 12 26% SW1113 21 mph 221° @ 0350 PM 76 32 46 8 29.82" 0 0.00 0    
Reese Center  08:40 PM 49 9 20% S1213 25 mph 228° @ 0425 PM 76 25 52 7 29.81" 0 0.00 0    
Roaring Springs 3N  08:40 PM 52 22 30% S68 28 mph 245° @ 0455 AM 78 43 44 10 29.79" 0 0.00 0    
Seagraves 1SW  08:40 PM 50 14 24% SW89 29 mph 241° @ 0250 PM 76 27 57 9 29.84" 0 0.00 0    
Seminole 2NNE  08:40 PM 56 12 18% SW912 26 mph 267° @ 0110 PM 75 31 56 9 29.84" 0 0.00 0    
Seymour 3NW  08:40 PM 59 30 33% S1114 28 mph 187° @ 0950 AM 77 42 90 15 29.78" 0 0.00 0    
Silverton 7ESE  08:35 PM 46 11 24% S1112 24 mph 235° @ 0225 PM 79 33 41 7 29.78" 0 0.00 0    
Slaton 2NE  08:40 PM 59 12 16% SW1620 26 mph 215° @ 0230 AM 78 35 45 8 29.81" 0 0.00 0    
Snyder 3E  08:40 PM 56 27 33% S1316 24 mph 201° @ 0405 PM 75 35 100 15 29.83" 0 0.00 0    
Snyder 3SSW  08:40 PM 55 27 33% S1013 24 mph 211° @ 0125 PM 75 33 99 15 29.84" 0 0.00 0    
Spur 1W  08:40 PM 53 17 24% S46 23 mph 225° @ 0225 PM 78 33 78 8 29.79" 0 0.00 0    
Stamford 5ESE  08:40 PM 61 32 33% S1213 27 mph 230° @ 1126 AM 79 41 93 14 29.82" 0 0.00 0    
Sundown 8WSW  08:35 PM 50 14 24% S1112 26 mph 220° @ 0400 PM 76 28 47 6 29.83" 0 0.00 0    
Tahoka 3NNE  08:40 PM 50 12 21% SW88 25 mph 221° @ 0405 PM 79 32 53 5 29.82" 0 0.00 0    
Tatum NM 2SW  08:40 PM 53 13 20% SW1621 28 mph 218° @ 0450 PM 73 29 45 9 29.85" 0 0.00 0    
Throckmorton 1SW  08:40 PM 63 31 29% S1114 26 mph 200° @ 0357 PM 77 42 95 20 29.81" 0 0.00 0    
Tulia 2ENE  08:40 PM 51 13 22% SW1012 23 mph 232° @ 0205 PM 77 36 45 12 29.79" 0 0.00 0    
Turkey 2WSW  08:40 PM 53 17 23% S1214 24 mph 211° @ 0110 AM 82 38 40 8 29.75" 0 0.00 0    
Umbarger 3NNE  08:40 PM 41 11 28% SW1011 27 mph 244° @ 0336 PM 77 30 47 10 29.77" 0 0.00 0   1
Vigo Park  08:40 PM 50 12 22% SW1113 24 mph 218° @ 0234 PM 80 31 45 10 29.79" 0 0.00 0    
Weinert 2NNE  08:40 PM 60 31 33% S1719 30 mph 221° @ 1114 AM 78 41 88 16 29.80" 0 0.00 0    
Welch  08:40 PM 53 15 22% SW1011 26 mph 252° @ 0250 PM 78 27 65 9 29.84" 0 0.00 0    
White River Lake 6NW  08:40 PM 57 14 18% SW1012 25 mph 200° @ 0330 PM 79 37 47 7 29.80" 0 0.00 0    
Wolfforth 6SSW  08:40 PM 51 11 20% S1315 28 mph 233° @ 0345 PM 78 25 48 6 29.83" 0 0.00 0    

West Texas Mesonet Home   Site Map/Menu  NWS Lubbock Soil Data  Daily Summary Page  24hr Precip  72hr Precip  Google Plot